sensor_id;sensor_type;location;lat;lon;timestamp;P1;durP1;ratioP1;P2;durP2;ratioP2
3726;SDS011;1879;45.876;12.300;2022-12-18T00:00:59;12.80;;;11.30;;
3726;SDS011;1879;45.876;12.300;2022-12-18T00:03:30;11.93;;;10.70;;
3726;SDS011;1879;45.876;12.300;2022-12-18T00:05:58;12.20;;;10.93;;
3726;SDS011;1879;45.876;12.300;2022-12-18T00:08:25;12.40;;;10.90;;
3726;SDS011;1879;45.876;12.300;2022-12-18T00:10:52;12.33;;;11.13;;
3726;SDS011;1879;45.876;12.300;2022-12-18T00:13:19;13.30;;;11.90;;
3726;SDS011;1879;45.876;12.300;2022-12-18T00:15:46;13.20;;;11.80;;
3726;SDS011;1879;45.876;12.300;2022-12-18T00:18:14;11.97;;;10.87;;
3726;SDS011;1879;45.876;12.300;2022-12-18T00:20:41;11.27;;;10.27;;
3726;SDS011;1879;45.876;12.300;2022-12-18T00:23:08;12.53;;;11.20;;
3726;SDS011;1879;45.876;12.300;2022-12-18T00:25:36;12.77;;;11.47;;
3726;SDS011;1879;45.876;12.300;2022-12-18T00:28:03;11.83;;;10.73;;
3726;SDS011;1879;45.876;12.300;2022-12-18T00:30:30;11.27;;;10.17;;
3726;SDS011;1879;45.876;12.300;2022-12-18T00:32:57;12.40;;;10.20;;
3726;SDS011;1879;45.876;12.300;2022-12-18T00:35:25;11.37;;;10.33;;
3726;SDS011;1879;45.876;12.300;2022-12-18T00:37:52;10.50;;;9.50;;
3726;SDS011;1879;45.876;12.300;2022-12-18T00:40:19;10.23;;;9.23;;
3726;SDS011;1879;45.876;12.300;2022-12-18T00:42:46;10.47;;;9.40;;
3726;SDS011;1879;45.876;12.300;2022-12-18T00:45:21;9.57;;;8.67;;
3726;SDS011;1879;45.876;12.300;2022-12-18T00:47:49;10.13;;;9.20;;
3726;SDS011;1879;45.876;12.300;2022-12-18T00:50:16;9.50;;;8.50;;
3726;SDS011;1879;45.876;12.300;2022-12-18T00:52:45;9.30;;;8.40;;
3726;SDS011;1879;45.876;12.300;2022-12-18T00:55:12;9.40;;;8.43;;
3726;SDS011;1879;45.876;12.300;2022-12-18T00:57:39;9.23;;;8.30;;
3726;SDS011;1879;45.876;12.300;2022-12-18T01:00:07;9.63;;;8.70;;
3726;SDS011;1879;45.876;12.300;2022-12-18T01:02:36;8.97;;;8.07;;
3726;SDS011;1879;45.876;12.300;2022-12-18T01:05:03;9.53;;;8.63;;
3726;SDS011;1879;45.876;12.300;2022-12-18T01:07:30;9.30;;;8.50;;
3726;SDS011;1879;45.876;12.300;2022-12-18T01:09:59;10.67;;;9.40;;
3726;SDS011;1879;45.876;12.300;2022-12-18T01:12:26;9.07;;;8.27;;
3726;SDS011;1879;45.876;12.300;2022-12-18T01:14:53;9.73;;;8.73;;
3726;SDS011;1879;45.876;12.300;2022-12-18T01:17:20;9.20;;;8.33;;
3726;SDS011;1879;45.876;12.300;2022-12-18T01:19:47;10.50;;;9.10;;
3726;SDS011;1879;45.876;12.300;2022-12-18T01:22:14;9.63;;;8.67;;
3726;SDS011;1879;45.876;12.300;2022-12-18T01:24:41;8.20;;;7.43;;
3726;SDS011;1879;45.876;12.300;2022-12-18T01:27:10;9.10;;;8.30;;
3726;SDS011;1879;45.876;12.300;2022-12-18T01:29:37;8.93;;;8.13;;
3726;SDS011;1879;45.876;12.300;2022-12-18T01:32:04;9.10;;;8.27;;
3726;SDS011;1879;45.876;12.300;2022-12-18T01:34:31;9.10;;;8.27;;
3726;SDS011;1879;45.876;12.300;2022-12-18T01:37:00;8.23;;;7.53;;
3726;SDS011;1879;45.876;12.300;2022-12-18T01:39:28;9.70;;;8.30;;
3726;SDS011;1879;45.876;12.300;2022-12-18T01:41:57;8.80;;;8.00;;
3726;SDS011;1879;45.876;12.300;2022-12-18T01:47:27;8.70;;;7.80;;
3726;SDS011;1879;45.876;12.300;2022-12-18T01:49:58;8.40;;;7.57;;
3726;SDS011;1879;45.876;12.300;2022-12-18T01:52:30;8.43;;;7.63;;
3726;SDS011;1879;45.876;12.300;2022-12-18T01:54:59;9.10;;;8.20;;
3726;SDS011;1879;45.876;12.300;2022-12-18T01:57:27;8.00;;;7.30;;
3726;SDS011;1879;45.876;12.300;2022-12-18T01:59:59;8.90;;;8.10;;
3726;SDS011;1879;45.876;12.300;2022-12-18T02:02:27;8.70;;;7.90;;
3726;SDS011;1879;45.876;12.300;2022-12-18T02:04:58;8.87;;;8.07;;
3726;SDS011;1879;45.876;12.300;2022-12-18T02:07:26;8.90;;;8.00;;
3726;SDS011;1879;45.876;12.300;2022-12-18T02:10:02;8.60;;;7.80;;
3726;SDS011;1879;45.876;12.300;2022-12-18T02:12:34;8.90;;;8.00;;
3726;SDS011;1879;45.876;12.300;2022-12-18T02:15:12;8.53;;;7.73;;
3726;SDS011;1879;45.876;12.300;2022-12-18T02:17:44;9.73;;;8.77;;
3726;SDS011;1879;45.876;12.300;2022-12-18T02:20:17;9.50;;;8.63;;
3726;SDS011;1879;45.876;12.300;2022-12-18T02:22:55;8.40;;;7.60;;
3726;SDS011;1879;45.876;12.300;2022-12-18T02:28:36;9.47;;;8.57;;
3726;SDS011;1879;45.876;12.300;2022-12-18T02:31:07;9.50;;;8.30;;
3726;SDS011;1879;45.876;12.300;2022-12-18T02:33:38;9.53;;;7.70;;
3726;SDS011;1879;45.876;12.300;2022-12-18T02:36:08;9.60;;;8.70;;
3726;SDS011;1879;45.876;12.300;2022-12-18T02:38:37;7.93;;;7.13;;
3726;SDS011;1879;45.876;12.300;2022-12-18T02:41:06;9.90;;;8.90;;
3726;SDS011;1879;45.876;12.300;2022-12-18T02:43:33;9.10;;;8.20;;
3726;SDS011;1879;45.876;12.300;2022-12-18T02:46:00;9.50;;;8.60;;
3726;SDS011;1879;45.876;12.300;2022-12-18T02:49:01;9.00;;;8.10;;
3726;SDS011;1879;45.876;12.300;2022-12-18T02:51:40;9.20;;;8.40;;
3726;SDS011;1879;45.876;12.300;2022-12-18T02:54:18;9.23;;;8.33;;
3726;SDS011;1879;45.876;12.300;2022-12-18T02:56:55;9.20;;;8.40;;
3726;SDS011;1879;45.876;12.300;2022-12-18T02:59:29;9.10;;;8.30;;
3726;SDS011;1879;45.876;12.300;2022-12-18T03:02:10;9.40;;;8.50;;
3726;SDS011;1879;45.876;12.300;2022-12-18T03:04:47;9.67;;;8.77;;
3726;SDS011;1879;45.876;12.300;2022-12-18T03:07:21;9.93;;;8.93;;
3726;SDS011;1879;45.876;12.300;2022-12-18T03:09:52;9.57;;;8.67;;
3726;SDS011;1879;45.876;12.300;2022-12-18T03:12:23;9.67;;;8.70;;
3726;SDS011;1879;45.876;12.300;2022-12-18T03:14:56;8.67;;;7.80;;
3726;SDS011;1879;45.876;12.300;2022-12-18T03:17:28;8.67;;;7.33;;
3726;SDS011;1879;45.876;12.300;2022-12-18T03:19:58;10.30;;;9.20;;
3726;SDS011;1879;45.876;12.300;2022-12-18T03:22:30;9.50;;;8.57;;
3726;SDS011;1879;45.876;12.300;2022-12-18T03:25:00;9.17;;;8.27;;
3726;SDS011;1879;45.876;12.300;2022-12-18T03:27:32;9.93;;;8.90;;
3726;SDS011;1879;45.876;12.300;2022-12-18T03:30:03;9.57;;;8.70;;
3726;SDS011;1879;45.876;12.300;2022-12-18T03:32:43;9.30;;;8.07;;
3726;SDS011;1879;45.876;12.300;2022-12-18T03:35:14;9.47;;;8.50;;
3726;SDS011;1879;45.876;12.300;2022-12-18T03:37:47;9.20;;;8.30;;
3726;SDS011;1879;45.876;12.300;2022-12-18T03:40:15;8.17;;;7.47;;
3726;SDS011;1879;45.876;12.300;2022-12-18T03:42:45;8.63;;;7.83;;
3726;SDS011;1879;45.876;12.300;2022-12-18T03:45:19;10.03;;;8.87;;
3726;SDS011;1879;45.876;12.300;2022-12-18T03:47:53;10.80;;;8.37;;
3726;SDS011;1879;45.876;12.300;2022-12-18T03:50:28;10.07;;;8.63;;
3726;SDS011;1879;45.876;12.300;2022-12-18T03:53:04;9.70;;;8.70;;
3726;SDS011;1879;45.876;12.300;2022-12-18T03:55:40;10.67;;;9.13;;
3726;SDS011;1879;45.876;12.300;2022-12-18T03:58:10;9.33;;;8.43;;
3726;SDS011;1879;45.876;12.300;2022-12-18T04:00:42;9.73;;;8.83;;
3726;SDS011;1879;45.876;12.300;2022-12-18T04:03:11;10.13;;;8.27;;
3726;SDS011;1879;45.876;12.300;2022-12-18T04:05:39;9.73;;;8.73;;
3726;SDS011;1879;45.876;12.300;2022-12-18T04:08:09;8.53;;;7.83;;
3726;SDS011;1879;45.876;12.300;2022-12-18T04:10:36;9.80;;;8.87;;
3726;SDS011;1879;45.876;12.300;2022-12-18T04:13:03;9.50;;;8.60;;
3726;SDS011;1879;45.876;12.300;2022-12-18T04:15:32;10.13;;;9.13;;
3726;SDS011;1879;45.876;12.300;2022-12-18T04:18:01;9.93;;;8.87;;
3726;SDS011;1879;45.876;12.300;2022-12-18T04:20:29;9.90;;;8.90;;
3726;SDS011;1879;45.876;12.300;2022-12-18T04:22:56;9.37;;;8.50;;
3726;SDS011;1879;45.876;12.300;2022-12-18T04:25:23;9.33;;;8.33;;
3726;SDS011;1879;45.876;12.300;2022-12-18T04:27:50;13.70;;;8.60;;
3726;SDS011;1879;45.876;12.300;2022-12-18T04:30:17;9.80;;;8.80;;
3726;SDS011;1879;45.876;12.300;2022-12-18T04:32:45;9.07;;;8.03;;
3726;SDS011;1879;45.876;12.300;2022-12-18T04:35:12;9.67;;;8.67;;
3726;SDS011;1879;45.876;12.300;2022-12-18T04:37:39;10.27;;;8.97;;
3726;SDS011;1879;45.876;12.300;2022-12-18T04:40:06;9.70;;;8.80;;
3726;SDS011;1879;45.876;12.300;2022-12-18T04:42:36;9.97;;;9.07;;
3726;SDS011;1879;45.876;12.300;2022-12-18T04:45:03;9.30;;;8.40;;
3726;SDS011;1879;45.876;12.300;2022-12-18T04:47:31;9.43;;;8.53;;
3726;SDS011;1879;45.876;12.300;2022-12-18T04:49:59;10.50;;;9.53;;
3726;SDS011;1879;45.876;12.300;2022-12-18T04:52:26;9.77;;;8.77;;
3726;SDS011;1879;45.876;12.300;2022-12-18T04:54:53;9.27;;;8.30;;
3726;SDS011;1879;45.876;12.300;2022-12-18T04:57:20;10.57;;;9.57;;
3726;SDS011;1879;45.876;12.300;2022-12-18T04:59:47;9.43;;;8.57;;
3726;SDS011;1879;45.876;12.300;2022-12-18T05:02:14;9.83;;;8.83;;
3726;SDS011;1879;45.876;12.300;2022-12-18T05:04:41;9.03;;;8.23;;
3726;SDS011;1879;45.876;12.300;2022-12-18T05:07:10;11.63;;;9.97;;
3726;SDS011;1879;45.876;12.300;2022-12-18T05:09:37;8.90;;;8.00;;
3726;SDS011;1879;45.876;12.300;2022-12-18T05:12:04;9.70;;;8.80;;
3726;SDS011;1879;45.876;12.300;2022-12-18T05:14:31;9.70;;;8.80;;
3726;SDS011;1879;45.876;12.300;2022-12-18T05:16:58;10.10;;;9.17;;
3726;SDS011;1879;45.876;12.300;2022-12-18T05:19:25;12.50;;;8.90;;
3726;SDS011;1879;45.876;12.300;2022-12-18T05:21:52;9.33;;;8.40;;
3726;SDS011;1879;45.876;12.300;2022-12-18T05:24:20;8.87;;;8.00;;
3726;SDS011;1879;45.876;12.300;2022-12-18T05:26:47;9.57;;;8.67;;
3726;SDS011;1879;45.876;12.300;2022-12-18T05:29:14;10.20;;;9.00;;
3726;SDS011;1879;45.876;12.300;2022-12-18T05:31:41;14.93;;;12.37;;
3726;SDS011;1879;45.876;12.300;2022-12-18T05:34:08;15.10;;;13.50;;
3726;SDS011;1879;45.876;12.300;2022-12-18T05:36:36;16.17;;;14.60;;
3726;SDS011;1879;45.876;12.300;2022-12-18T05:39:03;16.90;;;15.30;;
3726;SDS011;1879;45.876;12.300;2022-12-18T05:41:31;16.30;;;14.70;;
3726;SDS011;1879;45.876;12.300;2022-12-18T05:43:58;16.30;;;14.70;;
3726;SDS011;1879;45.876;12.300;2022-12-18T05:46:25;14.60;;;13.10;;
3726;SDS011;1879;45.876;12.300;2022-12-18T05:48:52;15.47;;;14.00;;
3726;SDS011;1879;45.876;12.300;2022-12-18T05:51:20;15.70;;;14.17;;
3726;SDS011;1879;45.876;12.300;2022-12-18T05:53:48;14.73;;;13.23;;
3726;SDS011;1879;45.876;12.300;2022-12-18T05:56:16;14.17;;;11.50;;
3726;SDS011;1879;45.876;12.300;2022-12-18T05:58:45;11.60;;;10.13;;
3726;SDS011;1879;45.876;12.300;2022-12-18T06:01:14;12.80;;;11.63;;
3726;SDS011;1879;45.876;12.300;2022-12-18T06:03:43;11.67;;;10.50;;
3726;SDS011;1879;45.876;12.300;2022-12-18T06:06:13;11.80;;;10.70;;
3726;SDS011;1879;45.876;12.300;2022-12-18T06:08:41;11.17;;;10.07;;
3726;SDS011;1879;45.876;12.300;2022-12-18T06:11:08;12.37;;;11.07;;
3726;SDS011;1879;45.876;12.300;2022-12-18T06:13:35;12.23;;;11.03;;
3726;SDS011;1879;45.876;12.300;2022-12-18T06:16:04;11.50;;;10.40;;
3726;SDS011;1879;45.876;12.300;2022-12-18T06:18:34;11.53;;;10.53;;
3726;SDS011;1879;45.876;12.300;2022-12-18T06:21:01;11.87;;;10.67;;
3726;SDS011;1879;45.876;12.300;2022-12-18T06:23:28;13.10;;;11.80;;
3726;SDS011;1879;45.876;12.300;2022-12-18T06:25:55;12.80;;;11.67;;
3726;SDS011;1879;45.876;12.300;2022-12-18T06:28:22;12.13;;;10.93;;
3726;SDS011;1879;45.876;12.300;2022-12-18T06:30:49;13.20;;;11.97;;
3726;SDS011;1879;45.876;12.300;2022-12-18T06:33:18;11.80;;;10.60;;
3726;SDS011;1879;45.876;12.300;2022-12-18T06:35:45;15.90;;;14.30;;
3726;SDS011;1879;45.876;12.300;2022-12-18T06:38:12;22.13;;;19.53;;
3726;SDS011;1879;45.876;12.300;2022-12-18T06:40:39;17.00;;;15.40;;
3726;SDS011;1879;45.876;12.300;2022-12-18T06:43:06;14.90;;;13.50;;
3726;SDS011;1879;45.876;12.300;2022-12-18T06:45:33;13.70;;;12.40;;
3726;SDS011;1879;45.876;12.300;2022-12-18T06:48:00;13.70;;;12.40;;
3726;SDS011;1879;45.876;12.300;2022-12-18T06:50:28;13.80;;;12.50;;
3726;SDS011;1879;45.876;12.300;2022-12-18T06:52:55;14.50;;;13.10;;
3726;SDS011;1879;45.876;12.300;2022-12-18T06:55:22;15.77;;;14.17;;
3726;SDS011;1879;45.876;12.300;2022-12-18T06:57:49;14.57;;;13.37;;
3726;SDS011;1879;45.876;12.300;2022-12-18T07:00:17;14.77;;;13.20;;
3726;SDS011;1879;45.876;12.300;2022-12-18T07:02:44;13.07;;;11.70;;
3726;SDS011;1879;45.876;12.300;2022-12-18T07:05:11;13.37;;;12.07;;
3726;SDS011;1879;45.876;12.300;2022-12-18T07:07:39;12.93;;;11.73;;
3726;SDS011;1879;45.876;12.300;2022-12-18T07:10:07;12.27;;;11.07;;
3726;SDS011;1879;45.876;12.300;2022-12-18T07:12:34;16.40;;;12.57;;
3726;SDS011;1879;45.876;12.300;2022-12-18T07:15:02;15.13;;;13.53;;
3726;SDS011;1879;45.876;12.300;2022-12-18T07:17:29;15.53;;;13.77;;
3726;SDS011;1879;45.876;12.300;2022-12-18T07:19:56;19.67;;;16.33;;
3726;SDS011;1879;45.876;12.300;2022-12-18T07:22:24;20.30;;;18.10;;
3726;SDS011;1879;45.876;12.300;2022-12-18T07:24:53;17.50;;;15.80;;
3726;SDS011;1879;45.876;12.300;2022-12-18T07:27:20;21.07;;;18.73;;
3726;SDS011;1879;45.876;12.300;2022-12-18T07:29:47;19.43;;;17.33;;
3726;SDS011;1879;45.876;12.300;2022-12-18T07:32:14;19.67;;;17.63;;
3726;SDS011;1879;45.876;12.300;2022-12-18T07:34:41;19.90;;;17.90;;
3726;SDS011;1879;45.876;12.300;2022-12-18T07:37:08;19.40;;;17.33;;
3726;SDS011;1879;45.876;12.300;2022-12-18T07:39:35;21.10;;;18.80;;
3726;SDS011;1879;45.876;12.300;2022-12-18T07:42:04;20.03;;;17.93;;
3726;SDS011;1879;45.876;12.300;2022-12-18T07:44:47;25.47;;;18.60;;
3726;SDS011;1879;45.876;12.300;2022-12-18T07:47:14;20.40;;;18.30;;
3726;SDS011;1879;45.876;12.300;2022-12-18T07:49:41;20.90;;;18.70;;
3726;SDS011;1879;45.876;12.300;2022-12-18T07:52:08;23.80;;;21.60;;
3726;SDS011;1879;45.876;12.300;2022-12-18T07:54:37;23.80;;;21.30;;
3726;SDS011;1879;45.876;12.300;2022-12-18T07:57:06;23.83;;;21.33;;
3726;SDS011;1879;45.876;12.300;2022-12-18T07:59:34;19.33;;;17.53;;
3726;SDS011;1879;45.876;12.300;2022-12-18T08:02:01;22.10;;;19.90;;
3726;SDS011;1879;45.876;12.300;2022-12-18T08:04:28;21.60;;;19.40;;
3726;SDS011;1879;45.876;12.300;2022-12-18T08:06:55;21.40;;;19.10;;
3726;SDS011;1879;45.876;12.300;2022-12-18T08:09:22;21.27;;;19.07;;
3726;SDS011;1879;45.876;12.300;2022-12-18T08:11:49;21.87;;;19.57;;
3726;SDS011;1879;45.876;12.300;2022-12-18T08:14:17;25.50;;;18.90;;
3726;SDS011;1879;45.876;12.300;2022-12-18T08:16:44;26.20;;;22.00;;
3726;SDS011;1879;45.876;12.300;2022-12-18T08:19:11;54.10;;;46.00;;
3726;SDS011;1879;45.876;12.300;2022-12-18T08:21:38;48.37;;;40.83;;
3726;SDS011;1879;45.876;12.300;2022-12-18T08:24:08;26.67;;;24.13;;
3726;SDS011;1879;45.876;12.300;2022-12-18T08:26:36;23.80;;;21.20;;
3726;SDS011;1879;45.876;12.300;2022-12-18T08:29:03;24.20;;;21.50;;
3726;SDS011;1879;45.876;12.300;2022-12-18T08:31:31;23.03;;;20.63;;
3726;SDS011;1879;45.876;12.300;2022-12-18T08:33:59;22.17;;;19.87;;
3726;SDS011;1879;45.876;12.300;2022-12-18T08:36:26;20.80;;;18.80;;
3726;SDS011;1879;45.876;12.300;2022-12-18T08:38:53;22.30;;;20.00;;
3726;SDS011;1879;45.876;12.300;2022-12-18T08:41:20;20.90;;;18.70;;
3726;SDS011;1879;45.876;12.300;2022-12-18T08:43:47;21.00;;;18.90;;
3726;SDS011;1879;45.876;12.300;2022-12-18T08:46:34;20.50;;;18.40;;
3726;SDS011;1879;45.876;12.300;2022-12-18T08:49:02;23.13;;;20.63;;
3726;SDS011;1879;45.876;12.300;2022-12-18T08:51:30;22.33;;;19.90;;
3726;SDS011;1879;45.876;12.300;2022-12-18T08:53:57;18.63;;;16.90;;
3726;SDS011;1879;45.876;12.300;2022-12-18T08:56:24;18.27;;;16.47;;
3726;SDS011;1879;45.876;12.300;2022-12-18T08:58:52;15.27;;;13.80;;
3726;SDS011;1879;45.876;12.300;2022-12-18T09:01:21;15.77;;;13.83;;
3726;SDS011;1879;45.876;12.300;2022-12-18T09:03:50;16.07;;;14.47;;
3726;SDS011;1879;45.876;12.300;2022-12-18T09:06:18;14.33;;;13.00;;
3726;SDS011;1879;45.876;12.300;2022-12-18T09:08:46;16.70;;;14.57;;
3726;SDS011;1879;45.876;12.300;2022-12-18T09:11:14;12.90;;;11.70;;
3726;SDS011;1879;45.876;12.300;2022-12-18T09:13:44;12.67;;;11.37;;
3726;SDS011;1879;45.876;12.300;2022-12-18T09:16:11;13.60;;;12.13;;
3726;SDS011;1879;45.876;12.300;2022-12-18T09:18:38;23.33;;;11.90;;
3726;SDS011;1879;45.876;12.300;2022-12-18T09:21:10;12.13;;;10.83;;
3726;SDS011;1879;45.876;12.300;2022-12-18T09:23:38;12.47;;;11.20;;
3726;SDS011;1879;45.876;12.300;2022-12-18T09:26:06;11.07;;;10.07;;
3726;SDS011;1879;45.876;12.300;2022-12-18T09:28:33;15.03;;;11.00;;
3726;SDS011;1879;45.876;12.300;2022-12-18T09:31:03;11.00;;;9.90;;
3726;SDS011;1879;45.876;12.300;2022-12-18T09:33:31;11.60;;;10.40;;
3726;SDS011;1879;45.876;12.300;2022-12-18T09:36:00;11.27;;;9.83;;
3726;SDS011;1879;45.876;12.300;2022-12-18T09:38:30;12.57;;;11.30;;
3726;SDS011;1879;45.876;12.300;2022-12-18T09:40:57;11.90;;;10.70;;
3726;SDS011;1879;45.876;12.300;2022-12-18T09:43:29;12.07;;;10.80;;
3726;SDS011;1879;45.876;12.300;2022-12-18T09:46:01;12.37;;;10.43;;
3726;SDS011;1879;45.876;12.300;2022-12-18T09:48:34;11.80;;;10.60;;
3726;SDS011;1879;45.876;12.300;2022-12-18T09:51:04;11.77;;;10.13;;
3726;SDS011;1879;45.876;12.300;2022-12-18T09:53:38;12.90;;;11.60;;
3726;SDS011;1879;45.876;12.300;2022-12-18T09:56:06;11.50;;;10.50;;
3726;SDS011;1879;45.876;12.300;2022-12-18T09:58:39;11.60;;;10.50;;
3726;SDS011;1879;45.876;12.300;2022-12-18T10:01:11;12.43;;;10.97;;
3726;SDS011;1879;45.876;12.300;2022-12-18T10:03:41;11.30;;;10.10;;
3726;SDS011;1879;45.876;12.300;2022-12-18T10:06:10;11.80;;;10.60;;
3726;SDS011;1879;45.876;12.300;2022-12-18T10:08:43;11.43;;;10.30;;
3726;SDS011;1879;45.876;12.300;2022-12-18T10:11:21;11.93;;;10.83;;
3726;SDS011;1879;45.876;12.300;2022-12-18T10:14:08;11.90;;;10.73;;
3726;SDS011;1879;45.876;12.300;2022-12-18T10:16:42;11.43;;;10.17;;
3726;SDS011;1879;45.876;12.300;2022-12-18T10:19:20;12.80;;;10.67;;
3726;SDS011;1879;45.876;12.300;2022-12-18T10:21:57;10.60;;;9.60;;
3726;SDS011;1879;45.876;12.300;2022-12-18T10:24:30;9.87;;;8.77;;
3726;SDS011;1879;45.876;12.300;2022-12-18T10:27:09;10.07;;;9.07;;
3726;SDS011;1879;45.876;12.300;2022-12-18T10:29:40;10.63;;;9.53;;
3726;SDS011;1879;45.876;12.300;2022-12-18T10:32:08;10.47;;;9.37;;
3726;SDS011;1879;45.876;12.300;2022-12-18T10:34:41;12.00;;;10.77;;
3726;SDS011;1879;45.876;12.300;2022-12-18T10:37:11;12.67;;;10.30;;
3726;SDS011;1879;45.876;12.300;2022-12-18T10:39:44;10.10;;;9.10;;
3726;SDS011;1879;45.876;12.300;2022-12-18T10:42:14;11.73;;;9.00;;
3726;SDS011;1879;45.876;12.300;2022-12-18T10:44:44;9.83;;;8.67;;
3726;SDS011;1879;45.876;12.300;2022-12-18T10:47:12;9.40;;;8.37;;
3726;SDS011;1879;45.876;12.300;2022-12-18T10:49:42;8.90;;;8.10;;
3726;SDS011;1879;45.876;12.300;2022-12-18T10:52:16;10.97;;;8.90;;
3726;SDS011;1879;45.876;12.300;2022-12-18T10:54:50;8.57;;;7.80;;
3726;SDS011;1879;45.876;12.300;2022-12-18T10:57:31;9.00;;;8.10;;
3726;SDS011;1879;45.876;12.300;2022-12-18T11:00:13;9.57;;;8.63;;
3726;SDS011;1879;45.876;12.300;2022-12-18T11:02:48;9.93;;;8.90;;
3726;SDS011;1879;45.876;12.300;2022-12-18T11:05:26;9.90;;;8.90;;
3726;SDS011;1879;45.876;12.300;2022-12-18T11:07:54;9.80;;;8.63;;
3726;SDS011;1879;45.876;12.300;2022-12-18T11:10:25;9.70;;;8.57;;
3726;SDS011;1879;45.876;12.300;2022-12-18T11:12:56;10.07;;;9.07;;
3726;SDS011;1879;45.876;12.300;2022-12-18T11:15:36;10.60;;;9.50;;
3726;SDS011;1879;45.876;12.300;2022-12-18T11:18:14;10.23;;;9.23;;
3726;SDS011;1879;45.876;12.300;2022-12-18T11:20:43;10.73;;;9.83;;
3726;SDS011;1879;45.876;12.300;2022-12-18T11:23:18;10.33;;;9.43;;
3726;SDS011;1879;45.876;12.300;2022-12-18T11:25:54;10.27;;;9.27;;
3726;SDS011;1879;45.876;12.300;2022-12-18T11:28:36;10.47;;;9.37;;
3726;SDS011;1879;45.876;12.300;2022-12-18T11:33:57;8.37;;;7.63;;
3726;SDS011;1879;45.876;12.300;2022-12-18T11:36:30;10.10;;;9.30;;
3726;SDS011;1879;45.876;12.300;2022-12-18T11:39:02;9.47;;;8.60;;
3726;SDS011;1879;45.876;12.300;2022-12-18T11:41:39;8.53;;;7.83;;
3726;SDS011;1879;45.876;12.300;2022-12-18T11:44:31;8.23;;;7.60;;
3726;SDS011;1879;45.876;12.300;2022-12-18T11:47:05;9.90;;;9.10;;
3726;SDS011;1879;45.876;12.300;2022-12-18T11:49:38;9.80;;;8.80;;
3726;SDS011;1879;45.876;12.300;2022-12-18T11:52:09;8.53;;;7.83;;
3726;SDS011;1879;45.876;12.300;2022-12-18T11:54:42;9.47;;;8.77;;
3726;SDS011;1879;45.876;12.300;2022-12-18T11:57:13;8.80;;;8.10;;
3726;SDS011;1879;45.876;12.300;2022-12-18T12:00:02;8.37;;;7.67;;
3726;SDS011;1879;45.876;12.300;2022-12-18T12:02:35;8.20;;;7.60;;
3726;SDS011;1879;45.876;12.300;2022-12-18T12:05:17;9.40;;;8.70;;
3726;SDS011;1879;45.876;12.300;2022-12-18T12:07:55;8.03;;;7.33;;
3726;SDS011;1879;45.876;12.300;2022-12-18T12:10:31;8.60;;;7.70;;
3726;SDS011;1879;45.876;12.300;2022-12-18T12:13:15;8.83;;;8.13;;
3726;SDS011;1879;45.876;12.300;2022-12-18T12:15:52;10.00;;;9.10;;
3726;SDS011;1879;45.876;12.300;2022-12-18T12:18:30;9.23;;;8.43;;
3726;SDS011;1879;45.876;12.300;2022-12-18T12:21:04;8.77;;;8.07;;
3726;SDS011;1879;45.876;12.300;2022-12-18T12:23:40;9.37;;;8.57;;
3726;SDS011;1879;45.876;12.300;2022-12-18T12:26:16;9.30;;;8.60;;
3726;SDS011;1879;45.876;12.300;2022-12-18T12:28:55;9.97;;;9.17;;
3726;SDS011;1879;45.876;12.300;2022-12-18T12:31:35;9.00;;;8.30;;
3726;SDS011;1879;45.876;12.300;2022-12-18T12:34:15;10.30;;;9.50;;
3726;SDS011;1879;45.876;12.300;2022-12-18T12:36:50;9.23;;;8.53;;
3726;SDS011;1879;45.876;12.300;2022-12-18T12:39:33;10.40;;;9.60;;
3726;SDS011;1879;45.876;12.300;2022-12-18T12:42:03;10.83;;;10.03;;
3726;SDS011;1879;45.876;12.300;2022-12-18T12:44:51;9.70;;;8.90;;
3726;SDS011;1879;45.876;12.300;2022-12-18T12:47:23;9.97;;;9.20;;
3726;SDS011;1879;45.876;12.300;2022-12-18T12:49:54;9.93;;;9.13;;
3726;SDS011;1879;45.876;12.300;2022-12-18T12:52:25;10.53;;;9.73;;
3726;SDS011;1879;45.876;12.300;2022-12-18T12:54:57;11.23;;;10.23;;
3726;SDS011;1879;45.876;12.300;2022-12-18T12:57:27;10.33;;;9.53;;
3726;SDS011;1879;45.876;12.300;2022-12-18T13:00:03;10.60;;;9.70;;
3726;SDS011;1879;45.876;12.300;2022-12-18T13:02:36;10.50;;;9.70;;
3726;SDS011;1879;45.876;12.300;2022-12-18T13:05:14;10.10;;;9.30;;
3726;SDS011;1879;45.876;12.300;2022-12-18T13:07:49;11.60;;;10.63;;
3726;SDS011;1879;45.876;12.300;2022-12-18T13:10:33;11.83;;;10.83;;
3726;SDS011;1879;45.876;12.300;2022-12-18T13:13:02;12.57;;;11.37;;
3726;SDS011;1879;45.876;12.300;2022-12-18T13:15:36;12.10;;;11.00;;
3726;SDS011;1879;45.876;12.300;2022-12-18T13:18:06;11.70;;;10.70;;
3726;SDS011;1879;45.876;12.300;2022-12-18T13:20:42;12.90;;;11.70;;
3726;SDS011;1879;45.876;12.300;2022-12-18T13:23:31;12.40;;;11.20;;
3726;SDS011;1879;45.876;12.300;2022-12-18T13:26:00;12.33;;;11.23;;
3726;SDS011;1879;45.876;12.300;2022-12-18T13:28:57;13.37;;;12.13;;
3726;SDS011;1879;45.876;12.300;2022-12-18T13:34:34;10.90;;;9.90;;
3726;SDS011;1879;45.876;12.300;2022-12-18T13:43:21;12.00;;;10.90;;
3726;SDS011;1879;45.876;12.300;2022-12-18T13:46:00;11.70;;;10.60;;
3726;SDS011;1879;45.876;12.300;2022-12-18T13:48:31;11.77;;;10.57;;
3726;SDS011;1879;45.876;12.300;2022-12-18T13:51:02;13.13;;;11.83;;
3726;SDS011;1879;45.876;12.300;2022-12-18T13:53:33;11.90;;;10.10;;
3726;SDS011;1879;45.876;12.300;2022-12-18T13:56:04;12.40;;;11.30;;
3726;SDS011;1879;45.876;12.300;2022-12-18T13:58:31;11.93;;;10.87;;
3726;SDS011;1879;45.876;12.300;2022-12-18T14:00:59;11.70;;;10.70;;
3726;SDS011;1879;45.876;12.300;2022-12-18T14:03:28;12.53;;;11.43;;
3726;SDS011;1879;45.876;12.300;2022-12-18T14:05:58;12.50;;;11.17;;
3726;SDS011;1879;45.876;12.300;2022-12-18T14:08:35;11.53;;;10.53;;
3726;SDS011;1879;45.876;12.300;2022-12-18T14:11:05;11.90;;;10.80;;
3726;SDS011;1879;45.876;12.300;2022-12-18T14:13:35;11.50;;;10.50;;
3726;SDS011;1879;45.876;12.300;2022-12-18T14:16:06;10.67;;;9.67;;
3726;SDS011;1879;45.876;12.300;2022-12-18T14:18:38;10.80;;;9.80;;
3726;SDS011;1879;45.876;12.300;2022-12-18T14:21:17;10.50;;;9.70;;
3726;SDS011;1879;45.876;12.300;2022-12-18T14:23:48;10.73;;;9.73;;
3726;SDS011;1879;45.876;12.300;2022-12-18T14:26:22;11.40;;;10.40;;
3726;SDS011;1879;45.876;12.300;2022-12-18T14:28:53;11.20;;;10.20;;
3726;SDS011;1879;45.876;12.300;2022-12-18T14:31:20;12.40;;;11.30;;
3726;SDS011;1879;45.876;12.300;2022-12-18T14:33:49;11.53;;;10.40;;
3726;SDS011;1879;45.876;12.300;2022-12-18T14:36:18;11.97;;;10.87;;
3726;SDS011;1879;45.876;12.300;2022-12-18T14:38:48;12.30;;;11.10;;
3726;SDS011;1879;45.876;12.300;2022-12-18T14:41:17;11.33;;;10.33;;
3726;SDS011;1879;45.876;12.300;2022-12-18T14:43:46;11.33;;;10.33;;
3726;SDS011;1879;45.876;12.300;2022-12-18T14:46:32;11.77;;;10.70;;
3726;SDS011;1879;45.876;12.300;2022-12-18T14:49:00;12.00;;;10.90;;
3726;SDS011;1879;45.876;12.300;2022-12-18T14:51:31;13.47;;;12.20;;
3726;SDS011;1879;45.876;12.300;2022-12-18T14:53:59;13.20;;;11.90;;
3726;SDS011;1879;45.876;12.300;2022-12-18T14:56:29;13.77;;;12.47;;
3726;SDS011;1879;45.876;12.300;2022-12-18T14:58:59;13.33;;;11.93;;
3726;SDS011;1879;45.876;12.300;2022-12-18T15:01:29;13.50;;;12.17;;
3726;SDS011;1879;45.876;12.300;2022-12-18T15:03:59;14.93;;;13.60;;
3726;SDS011;1879;45.876;12.300;2022-12-18T15:06:28;14.87;;;13.43;;
3726;SDS011;1879;45.876;12.300;2022-12-18T15:08:59;14.40;;;13.00;;
3726;SDS011;1879;45.876;12.300;2022-12-18T15:11:29;15.50;;;13.90;;
3726;SDS011;1879;45.876;12.300;2022-12-18T15:17:01;14.70;;;13.13;;
3726;SDS011;1879;45.876;12.300;2022-12-18T15:19:38;16.37;;;14.03;;
3726;SDS011;1879;45.876;12.300;2022-12-18T15:22:18;15.47;;;13.87;;
3726;SDS011;1879;45.876;12.300;2022-12-18T15:24:47;17.73;;;15.13;;
3726;SDS011;1879;45.876;12.300;2022-12-18T15:27:22;15.57;;;14.07;;